Time;durP1;ratioP1;P1;durP2;ratioP2;P2;SDS_P1;SDS_P2;PMS_P1;PMS_P2;Temp;Humidity;BMP_temperature;BMP_pressure;BME280_temperature;BME280_humidity;BME280_pressure;Samples;Min_cycle;Max_cycle;Signal;HPM_P1;HPM_P2
2023/12/25 00:01:04;;;;;;;1.20;0.80;;;11.50;99.90;;;;;;5012957;28;20034;-83
2023/12/25 00:03:30;;;;;;;0.73;0.50;;;11.40;99.90;;;;;;5014748;28;20124;-82
2023/12/25 00:05:56;;;;;;;0.80;0.70;;;11.40;99.90;;;;;;5013992;28;20026;-87
2023/12/25 00:08:21;;;;;;;1.87;0.70;;;11.40;99.90;;;;;;5014998;28;20036;-84
2023/12/25 00:10:47;;;;;;;1.40;0.70;;;11.40;99.90;;;;;;5013831;28;20026;-82
2023/12/25 00:13:13;;;;;;;0.70;0.60;;;11.50;99.90;;;;;;5012666;28;20401;-82
2023/12/25 00:15:38;;;;;;;0.63;0.40;;;11.60;99.90;;;;;;5012392;28;20049;-83
2023/12/25 00:18:04;;;;;;;1.13;0.60;;;11.60;99.90;;;;;;5014597;28;20061;-82
2023/12/25 00:20:29;;;;;;;0.50;0.50;;;11.70;99.90;;;;;;5014152;28;20048;-85
2023/12/25 00:22:55;;;;;;;0.50;0.50;;;11.70;99.90;;;;;;5014077;28;20029;-83
2023/12/25 00:25:20;;;;;;;0.70;0.70;;;11.70;99.90;;;;;;5015868;28;20100;-82
2023/12/25 00:27:46;;;;;;;0.60;0.60;;;11.60;99.90;;;;;;5015485;28;20080;-86
2023/12/25 00:30:12;;;;;;;1.30;0.60;;;11.60;99.90;;;;;;5014633;28;20092;-86
2023/12/25 00:32:38;;;;;;;1.80;0.60;;;11.50;99.90;;;;;;5012606;28;20029;-83
2023/12/25 00:35:04;;;;;;;1.00;0.60;;;11.50;99.90;;;;;;5013386;28;20026;-82
2023/12/25 00:37:30;;;;;;;1.03;0.60;;;11.50;99.90;;;;;;4995841;28;20349;-87
2023/12/25 00:39:55;;;;;;;1.93;0.60;;;11.50;99.90;;;;;;5014198;28;20404;-84
2023/12/25 00:42:21;;;;;;;2.57;0.90;;;11.50;99.90;;;;;;5013094;28;20072;-84
2023/12/25 00:44:46;;;;;;;1.23;0.67;;;11.50;99.90;;;;;;5014263;28;20042;-83
2023/12/25 00:47:12;;;;;;;0.50;0.50;;;11.40;99.90;;;;;;5010685;28;20042;-86
2023/12/25 00:49:38;;;;;;;0.63;0.63;;;11.50;99.90;;;;;;5013217;28;20045;-83
2023/12/25 00:52:03;;;;;;;0.50;0.50;;;11.40;99.90;;;;;;5012200;28;20038;-82
2023/12/25 00:54:31;;;;;;;1.20;0.70;;;11.40;99.90;;;;;;5011678;28;20044;-85
2023/12/25 00:56:57;;;;;;;0.60;0.50;;;11.40;99.90;;;;;;5012382;28;20463;-83
2023/12/25 00:59:22;;;;;;;0.40;0.40;;;11.30;99.90;;;;;;5011620;28;20030;-84
2023/12/25 01:01:49;;;;;;;0.93;0.60;;;11.40;99.90;;;;;;5012596;28;20128;-82
2023/12/25 01:04:14;;;;;;;0.63;0.60;;;11.40;99.90;;;;;;5012511;28;20072;-84
2023/12/25 01:06:40;;;;;;;0.70;0.60;;;11.40;99.90;;;;;;5011148;28;20548;-83
2023/12/25 01:09:05;;;;;;;1.00;0.60;;;11.40;99.90;;;;;;5013897;28;20132;-82
2023/12/25 01:11:31;;;;;;;0.60;0.60;;;11.50;99.90;;;;;;5015558;28;20034;-84
2023/12/25 01:13:56;;;;;;;0.60;0.60;;;11.60;99.90;;;;;;4995243;28;20025;-84
2023/12/25 01:16:23;;;;;;;1.03;0.70;;;11.50;99.90;;;;;;5012102;28;20029;-84
2023/12/25 01:18:50;;;;;;;0.87;0.60;;;11.40;99.90;;;;;;5011162;28;20068;-82
2023/12/25 01:21:15;;;;;;;1.00;0.70;;;11.40;99.90;;;;;;5015753;28;20107;-82
2023/12/25 01:23:41;;;;;;;1.17;0.60;;;11.40;99.90;;;;;;5013537;28;20497;-83
2023/12/25 01:26:07;;;;;;;0.60;0.60;;;11.30;99.90;;;;;;5022755;28;20050;-85
2023/12/25 01:28:32;;;;;;;0.60;0.60;;;11.20;99.90;;;;;;5020098;28;20038;-83
2023/12/25 01:30:58;;;;;;;2.00;0.70;;;11.20;99.90;;;;;;5015984;28;20046;-82
2023/12/25 01:33:23;;;;;;;0.70;0.50;;;11.20;99.90;;;;;;5019945;28;20026;-82
2023/12/25 01:35:49;;;;;;;1.20;0.63;;;11.20;99.90;;;;;;5013167;28;20064;-85
2023/12/25 01:38:14;;;;;;;0.60;0.60;;;11.20;99.90;;;;;;5011666;28;20546;-82
2023/12/25 01:40:44;;;;;;;1.53;0.60;;;11.20;99.90;;;;;;5013132;28;21004;-85
2023/12/25 01:43:09;;;;;;;0.67;0.67;;;11.20;99.90;;;;;;5012407;28;20041;-85
2023/12/25 01:45:35;;;;;;;1.23;0.73;;;11.20;99.90;;;;;;5012132;28;20038;-83
2023/12/25 01:48:00;;;;;;;0.90;0.70;;;11.20;99.90;;;;;;5012895;28;20038;-83
2023/12/25 01:50:27;;;;;;;0.77;0.50;;;11.20;99.90;;;;;;5013024;28;20030;-82
2023/12/25 01:52:53;;;;;;;0.97;0.70;;;11.20;99.90;;;;;;5011740;28;20026;-84
2023/12/25 01:55:18;;;;;;;0.60;0.60;;;11.20;99.90;;;;;;5012738;28;20040;-83
2023/12/25 01:57:44;;;;;;;0.60;0.60;;;11.20;99.90;;;;;;5013063;28;20148;-83
2023/12/25 02:00:10;;;;;;;0.80;0.60;;;11.10;99.90;;;;;;4993207;28;20034;-83
2023/12/25 02:02:35;;;;;;;0.60;0.60;;;11.10;99.90;;;;;;5009249;28;20033;-83
2023/12/25 02:05:01;;;;;;;1.07;0.70;;;11.10;99.90;;;;;;5013543;28;20009;-87
2023/12/25 02:07:27;;;;;;;0.53;0.53;;;11.10;99.90;;;;;;5010815;28;20057;-82
2023/12/25 02:09:52;;;;;;;1.17;0.70;;;11.00;99.90;;;;;;5011023;28;20030;-81
2023/12/25 02:12:18;;;;;;;1.23;0.67;;;11.10;99.90;;;;;;5012090;28;20040;-82
2023/12/25 02:14:44;;;;;;;0.83;0.70;;;11.10;99.90;;;;;;5011097;28;20417;-83
2023/12/25 02:17:10;;;;;;;2.53;0.70;;;11.10;99.90;;;;;;5010329;28;20041;-82
2023/12/25 02:19:40;;;;;;;1.30;1.00;;;11.00;99.90;;;;;;5010421;28;20026;-83
2023/12/25 02:22:09;;;;;;;0.97;0.60;;;11.10;99.90;;;;;;5010297;28;20038;-83
2023/12/25 02:24:46;;;;;;;0.77;0.50;;;11.00;99.90;;;;;;5009758;28;20488;-82
2023/12/25 02:27:11;;;;;;;1.40;0.97;;;11.00;99.90;;;;;;5011201;28;20069;-85
2023/12/25 02:29:37;;;;;;;1.40;0.60;;;11.00;99.90;;;;;;5013924;28;20065;-82
2023/12/25 02:32:02;;;;;;;2.13;0.60;;;11.10;99.90;;;;;;5011233;28;20038;-82
2023/12/25 02:34:28;;;;;;;0.87;0.70;;;11.00;99.90;;;;;;5009997;28;20030;-83
2023/12/25 02:36:53;;;;;;;1.67;0.70;;;11.00;99.90;;;;;;5012045;28;20038;-85
2023/12/25 02:39:19;;;;;;;0.70;0.70;;;11.00;99.90;;;;;;5010258;28;20030;-82
2023/12/25 02:41:45;;;;;;;0.73;0.60;;;10.80;99.90;;;;;;5010066;28;20026;-82
2023/12/25 02:44:11;;;;;;;1.07;0.70;;;10.80;99.90;;;;;;5010609;28;20500;-87
2023/12/25 02:46:36;;;;;;;0.50;0.50;;;10.90;99.90;;;;;;5008584;28;20037;-82
2023/12/25 02:49:02;;;;;;;0.87;0.70;;;10.90;99.90;;;;;;5008566;28;20042;-82
2023/12/25 02:51:27;;;;;;;1.00;0.77;;;10.90;99.90;;;;;;5010348;28;20030;-84
2023/12/25 02:53:53;;;;;;;1.13;0.70;;;10.80;99.90;;;;;;5013653;28;20025;-84
2023/12/25 02:56:18;;;;;;;1.70;0.77;;;10.80;99.90;;;;;;5009611;28;21686;-82
2023/12/25 02:58:44;;;;;;;0.70;0.70;;;10.80;99.90;;;;;;5010966;28;20042;-82
2023/12/25 03:01:09;;;;;;;0.80;0.80;;;10.70;99.90;;;;;;5008990;28;20025;-85
2023/12/25 03:03:35;;;;;;;3.43;1.00;;;10.70;99.90;;;;;;5007148;28;20693;-85
2023/12/25 03:06:00;;;;;;;0.53;0.53;;;10.70;99.90;;;;;;4991788;28;20120;-85
2023/12/25 03:08:26;;;;;;;1.97;0.83;;;10.70;99.90;;;;;;5009244;28;20034;-85
2023/12/25 03:10:51;;;;;;;0.90;0.70;;;10.80;99.90;;;;;;5009896;28;20089;-82
2023/12/25 03:13:17;;;;;;;1.27;0.73;;;10.70;99.90;;;;;;5010833;28;20057;-83
2023/12/25 03:15:42;;;;;;;0.77;0.70;;;10.70;99.90;;;;;;4996850;28;20022;-83
2023/12/25 03:18:08;;;;;;;0.63;0.63;;;10.80;99.90;;;;;;5014517;28;20057;-85
2023/12/25 03:20:33;;;;;;;1.23;0.70;;;10.80;99.90;;;;;;4997021;28;20041;-82
2023/12/25 03:22:59;;;;;;;1.27;0.70;;;10.70;99.90;;;;;;5014363;28;20029;-82
2023/12/25 03:25:24;;;;;;;0.90;0.70;;;10.70;99.90;;;;;;5014492;28;20476;-84
2023/12/25 03:27:50;;;;;;;1.50;0.90;;;10.80;99.90;;;;;;5015354;28;20041;-82
2023/12/25 03:30:15;;;;;;;1.10;0.70;;;10.80;99.90;;;;;;5014943;28;20045;-82
2023/12/25 03:32:41;;;;;;;2.20;0.60;;;10.70;99.90;;;;;;5015989;28;20048;-82
2023/12/25 03:35:06;;;;;;;1.73;0.87;;;10.80;99.90;;;;;;5015547;28;20030;-86
2023/12/25 03:37:32;;;;;;;1.43;0.60;;;10.70;99.90;;;;;;5013909;28;21437;-86
2023/12/25 03:39:58;;;;;;;0.63;0.60;;;10.70;99.90;;;;;;5016698;28;20034;-87
2023/12/25 03:42:24;;;;;;;1.60;0.70;;;10.80;99.90;;;;;;5015024;28;20080;-84
2023/12/25 03:44:49;;;;;;;0.70;0.60;;;10.80;99.90;;;;;;5025115;28;20054;-82
2023/12/25 03:47:15;;;;;;;1.10;0.60;;;10.80;99.90;;;;;;5015491;28;20045;-83
2023/12/25 03:49:41;;;;;;;1.30;0.80;;;10.80;99.90;;;;;;5020561;28;20025;-84
2023/12/25 03:52:06;;;;;;;0.60;0.60;;;10.80;99.90;;;;;;5019523;28;20026;-87
2023/12/25 03:54:32;;;;;;;0.83;0.73;;;10.80;99.90;;;;;;5015110;28;20536;-81
2023/12/25 03:56:57;;;;;;;1.43;0.60;;;10.90;99.90;;;;;;5011910;28;20041;-83
2023/12/25 03:59:23;;;;;;;0.97;0.70;;;10.90;99.90;;;;;;5013230;28;20029;-85
2023/12/25 04:01:48;;;;;;;0.83;0.70;;;10.80;99.90;;;;;;5012190;28;20071;-85
2023/12/25 04:04:14;;;;;;;2.00;0.60;;;10.80;99.90;;;;;;5012434;28;20787;-83
2023/12/25 04:06:39;;;;;;;1.97;0.80;;;10.80;99.90;;;;;;5011806;28;20825;-82
2023/12/25 04:09:06;;;;;;;0.70;0.70;;;10.80;99.90;;;;;;5013400;28;20049;-82
2023/12/25 04:11:32;;;;;;;0.60;0.60;;;10.90;99.90;;;;;;5012285;28;20040;-82
2023/12/25 04:13:58;;;;;;;3.67;0.70;;;10.90;99.90;;;;;;5011637;28;20049;-84
2023/12/25 04:16:25;;;;;;;0.73;0.60;;;10.90;99.90;;;;;;5009971;28;20030;-83
2023/12/25 04:18:53;;;;;;;0.80;0.60;;;10.90;99.90;;;;;;4995799;28;20542;-83
2023/12/25 04:21:32;;;;;;;1.27;0.70;;;10.90;99.90;;;;;;5013309;28;20037;-82
2023/12/25 04:23:59;;;;;;;1.23;0.60;;;10.90;99.90;;;;;;5012124;28;20104;-85
2023/12/25 04:26:25;;;;;;;1.33;0.70;;;10.90;99.90;;;;;;5010914;28;20042;-83
2023/12/25 04:28:52;;;;;;;2.57;0.80;;;10.80;99.90;;;;;;5013647;28;20029;-84
2023/12/25 04:31:18;;;;;;;0.70;0.70;;;10.90;99.90;;;;;;5012356;28;20045;-82
2023/12/25 04:33:44;;;;;;;1.10;0.80;;;10.90;99.90;;;;;;5013223;28;20158;-84
2023/12/25 04:36:10;;;;;;;1.13;0.70;;;10.90;99.90;;;;;;5012279;28;20034;-82
2023/12/25 04:38:37;;;;;;;0.50;0.50;;;10.90;99.90;;;;;;5011937;28;20036;-84
2023/12/25 04:41:03;;;;;;;2.07;0.77;;;10.90;99.90;;;;;;5011058;28;20425;-82
2023/12/25 04:43:28;;;;;;;1.13;0.70;;;10.80;99.90;;;;;;5010218;28;20048;-82
2023/12/25 04:45:54;;;;;;;0.70;0.60;;;10.80;99.90;;;;;;5011727;28;20042;-82
2023/12/25 04:48:20;;;;;;;0.80;0.70;;;10.80;99.90;;;;;;5013332;28;20033;-82
2023/12/25 04:50:46;;;;;;;1.00;0.70;;;10.80;99.90;;;;;;5012310;28;20061;-86
2023/12/25 04:53:12;;;;;;;1.37;0.80;;;10.80;99.90;;;;;;5013726;28;20515;-82
2023/12/25 04:55:39;;;;;;;0.93;0.70;;;10.80;99.90;;;;;;5012705;28;20025;-83
2023/12/25 04:58:04;;;;;;;2.50;0.80;;;10.80;99.90;;;;;;5011854;28;20053;-83
2023/12/25 05:00:31;;;;;;;0.93;0.60;;;10.90;99.90;;;;;;5011639;28;20034;-83
2023/12/25 05:02:57;;;;;;;1.17;0.67;;;10.80;99.90;;;;;;5012154;28;20103;-83
2023/12/25 05:05:22;;;;;;;0.67;0.63;;;10.80;99.90;;;;;;5012801;28;20038;-83
2023/12/25 05:07:48;;;;;;;0.60;0.50;;;10.80;99.90;;;;;;5011333;28;20029;-84
2023/12/25 05:10:13;;;;;;;1.00;0.67;;;10.80;99.90;;;;;;5012275;28;20030;-84
2023/12/25 05:12:39;;;;;;;2.47;0.80;;;10.70;99.90;;;;;;5011993;28;20064;-82
2023/12/25 05:15:05;;;;;;;2.60;0.80;;;10.80;99.90;;;;;;5011661;28;20029;-81
2023/12/25 05:17:30;;;;;;;0.90;0.53;;;10.80;99.90;;;;;;5011674;28;20037;-82
2023/12/25 05:19:56;;;;;;;1.60;0.63;;;10.70;99.90;;;;;;5011328;28;20034;-83
2023/12/25 05:22:21;;;;;;;1.53;0.83;;;10.70;99.90;;;;;;5013213;28;20394;-82
2023/12/25 05:24:47;;;;;;;1.20;0.77;;;10.70;99.90;;;;;;5010940;28;20029;-83
2023/12/25 05:27:13;;;;;;;2.47;0.80;;;10.70;99.90;;;;;;5011368;28;20029;-81
2023/12/25 05:29:38;;;;;;;0.70;0.60;;;10.60;99.90;;;;;;5011647;28;20034;-82
2023/12/25 05:32:04;;;;;;;0.90;0.60;;;10.70;99.90;;;;;;5012073;28;20045;-82
2023/12/25 05:34:29;;;;;;;1.20;0.70;;;10.70;99.90;;;;;;4993890;28;20125;-84
2023/12/25 05:36:55;;;;;;;1.93;0.70;;;10.70;99.90;;;;;;5010796;28;20141;-83
2023/12/25 05:39:21;;;;;;;2.37;0.70;;;10.60;99.90;;;;;;5011290;28;20048;-82
2023/12/25 05:41:46;;;;;;;1.37;0.70;;;10.60;99.90;;;;;;5012326;28;20037;-82
2023/12/25 05:44:12;;;;;;;0.97;0.63;;;10.50;99.90;;;;;;5012218;28;20052;-86
2023/12/25 05:46:38;;;;;;;2.40;0.80;;;10.40;99.90;;;;;;5010043;28;20125;-85
2023/12/25 05:49:05;;;;;;;4.17;0.87;;;10.40;99.90;;;;;;5010152;28;20037;-82
2023/12/25 05:51:30;;;;;;;1.03;0.63;;;10.40;99.90;;;;;;5010593;28;20046;-82
2023/12/25 05:53:56;;;;;;;2.97;1.33;;;10.30;99.90;;;;;;5013591;28;20033;-85
2023/12/25 05:56:22;;;;;;;0.50;0.50;;;10.40;99.90;;;;;;5010772;28;20026;-86
2023/12/25 05:58:48;;;;;;;1.70;0.60;;;10.40;99.90;;;;;;5012866;28;20040;-82
2023/12/25 06:01:13;;;;;;;2.47;0.67;;;10.40;99.90;;;;;;5014505;28;20515;-84
2023/12/25 06:03:40;;;;;;;1.00;0.70;;;10.40;99.90;;;;;;5017093;28;20108;-81
2023/12/25 06:06:05;;;;;;;0.90;0.73;;;10.40;99.90;;;;;;5013068;28;20462;-82
2023/12/25 06:08:31;;;;;;;2.93;0.80;;;10.30;99.90;;;;;;5010765;28;20022;-82
2023/12/25 06:10:57;;;;;;;1.40;0.80;;;10.30;99.90;;;;;;5011283;28;20041;-81
2023/12/25 06:13:23;;;;;;;2.93;0.77;;;10.20;99.90;;;;;;5011627;28;20026;-82
2023/12/25 06:15:49;;;;;;;0.80;0.80;;;10.20;99.90;;;;;;5011420;28;20105;-82
2023/12/25 06:18:15;;;;;;;1.53;0.80;;;10.20;99.90;;;;;;5011345;28;20045;-83
2023/12/25 06:20:40;;;;;;;0.90;0.80;;;10.20;99.90;;;;;;5010375;28;20025;-83
2023/12/25 06:23:06;;;;;;;1.13;0.80;;;10.10;99.90;;;;;;5010105;28;20409;-84
2023/12/25 06:25:32;;;;;;;1.60;0.83;;;10.10;99.90;;;;;;5010985;28;20105;-82
2023/12/25 06:27:57;;;;;;;2.80;0.80;;;10.00;99.90;;;;;;5011813;28;20101;-82
2023/12/25 06:30:23;;;;;;;2.10;0.70;;;10.00;99.90;;;;;;5012696;28;20032;-82
2023/12/25 06:32:48;;;;;;;1.13;0.73;;;10.00;99.90;;;;;;5011966;28;20034;-83
2023/12/25 06:35:14;;;;;;;1.00;0.70;;;10.00;99.90;;;;;;5011164;28;20876;-82
2023/12/25 06:37:40;;;;;;;0.90;0.70;;;10.00;99.90;;;;;;5010647;28;20335;-84
2023/12/25 06:40:06;;;;;;;1.97;1.03;;;9.90;99.90;;;;;;5010086;28;20025;-85
2023/12/25 06:42:31;;;;;;;1.43;0.87;;;9.90;99.90;;;;;;5012189;28;20160;-83
2023/12/25 06:44:57;;;;;;;3.97;1.47;;;9.90;99.90;;;;;;5012617;28;20679;-84
2023/12/25 06:47:22;;;;;;;1.77;0.80;;;9.90;99.90;;;;;;5009715;28;20093;-83
2023/12/25 06:49:48;;;;;;;1.23;0.70;;;9.80;99.90;;;;;;5011939;28;20027;-83
2023/12/25 06:52:13;;;;;;;0.97;0.70;;;9.70;99.90;;;;;;5014201;28;20034;-82
2023/12/25 06:54:39;;;;;;;3.30;0.80;;;9.70;99.90;;;;;;5015276;28;20025;-82
2023/12/25 06:57:05;;;;;;;1.13;0.77;;;9.60;99.90;;;;;;5014030;28;20037;-84
2023/12/25 06:59:30;;;;;;;0.90;0.77;;;9.50;99.90;;;;;;5015066;28;20064;-85
2023/12/25 07:01:56;;;;;;;1.17;0.80;;;9.50;99.90;;;;;;4997411;28;20048;-82
2023/12/25 07:04:22;;;;;;;1.20;0.83;;;9.40;99.90;;;;;;5016113;28;20493;-83
2023/12/25 07:06:48;;;;;;;0.90;0.73;;;9.30;99.90;;;;;;5013485;28;20118;-83
2023/12/25 07:09:14;;;;;;;1.13;0.90;;;9.30;99.90;;;;;;4995005;28;20120;-84
2023/12/25 07:11:41;;;;;;;1.10;0.80;;;9.20;99.90;;;;;;5013202;28;20034;-82
2023/12/25 07:14:10;;;;;;;1.10;0.90;;;9.20;99.90;;;;;;5013640;28;20427;-84
2023/12/25 07:16:36;;;;;;;1.63;0.90;;;9.10;99.90;;;;;;5011926;28;20034;-82
2023/12/25 07:19:01;;;;;;;1.03;0.87;;;9.20;99.90;;;;;;4996242;28;20510;-82
2023/12/25 07:21:27;;;;;;;4.63;1.17;;;9.20;99.90;;;;;;5012755;28;20804;-86
2023/12/25 07:23:52;;;;;;;1.17;0.80;;;9.20;99.90;;;;;;5012534;28;20036;-82
2023/12/25 07:26:19;;;;;;;0.70;0.70;;;9.20;99.90;;;;;;5011360;28;20119;-83
2023/12/25 07:28:45;;;;;;;0.90;0.80;;;9.10;99.90;;;;;;5011992;28;20113;-84
2023/12/25 07:31:11;;;;;;;1.17;0.70;;;9.10;99.90;;;;;;5011220;28;20089;-85
2023/12/25 07:33:36;;;;;;;0.87;0.80;;;9.10;99.90;;;;;;4994621;28;20033;-84
2023/12/25 07:36:03;;;;;;;1.00;0.80;;;9.00;99.90;;;;;;5014520;28;20098;-77
2023/12/25 07:38:29;;;;;;;2.60;1.00;;;9.00;99.90;;;;;;5018463;28;20045;-77
2023/12/25 07:40:55;;;;;;;1.17;0.93;;;9.10;99.90;;;;;;5016417;28;20025;-80
2023/12/25 07:43:22;;;;;;;1.00;0.70;;;9.20;99.90;;;;;;5017618;28;20026;-80
2023/12/25 07:45:47;;;;;;;0.80;0.77;;;9.10;99.90;;;;;;5020456;28;20086;-80
2023/12/25 07:48:13;;;;;;;1.20;0.90;;;9.20;99.90;;;;;;5020981;28;20143;-81
2023/12/25 07:50:38;;;;;;;1.13;0.90;;;9.20;99.90;;;;;;5018872;28;20029;-80
2023/12/25 07:53:04;;;;;;;1.10;0.97;;;9.10;99.90;;;;;;5019265;28;20030;-80
2023/12/25 07:55:30;;;;;;;1.27;0.90;;;9.20;99.90;;;;;;5023619;28;20044;-79
2023/12/25 07:57:58;;;;;;;0.80;0.80;;;9.20;99.90;;;;;;5003823;28;20040;-80
2023/12/25 08:00:24;;;;;;;1.27;0.90;;;9.20;99.90;;;;;;5023362;28;20034;-80
2023/12/25 08:02:49;;;;;;;1.23;0.90;;;9.20;99.90;;;;;;5023212;28;20056;-81
2023/12/25 08:05:15;;;;;;;0.97;0.80;;;9.20;99.90;;;;;;5025628;28;20042;-80
2023/12/25 08:07:40;;;;;;;1.27;0.90;;;9.30;99.90;;;;;;5023827;28;20029;-80
2023/12/25 08:10:06;;;;;;;1.27;0.90;;;9.30;99.90;;;;;;5023881;28;20044;-81
2023/12/25 08:12:31;;;;;;;1.00;0.80;;;9.40;99.90;;;;;;5007254;28;20037;-80
2023/12/25 08:14:57;;;;;;;1.10;0.80;;;9.40;99.90;;;;;;5021114;28;20026;-80
2023/12/25 08:17:22;;;;;;;2.00;1.00;;;9.60;99.90;;;;;;5023565;28;20037;-80
2023/12/25 08:19:48;;;;;;;3.17;1.00;;;9.60;99.90;;;;;;5022823;28;20332;-81
2023/12/25 08:22:13;;;;;;;1.10;0.90;;;9.70;99.90;;;;;;5022265;28;20018;-82
2023/12/25 08:24:39;;;;;;;0.97;0.80;;;9.80;99.90;;;;;;5021007;28;21056;-80
2023/12/25 08:27:04;;;;;;;1.57;1.00;;;9.90;99.90;;;;;;5017383;28;20043;-80
2023/12/25 08:29:30;;;;;;;1.17;0.80;;;10.00;99.90;;;;;;5003880;28;20040;-80
2023/12/25 08:31:56;;;;;;;1.73;0.87;;;10.00;99.90;;;;;;5008842;28;20076;-82
2023/12/25 08:34:23;;;;;;;1.20;0.90;;;10.10;99.90;;;;;;5011472;28;20052;-83
2023/12/25 08:36:49;;;;;;;1.50;0.83;;;10.10;99.90;;;;;;5011603;28;20057;-80
2023/12/25 08:39:16;;;;;;;1.37;0.80;;;10.10;99.90;;;;;;5014598;28;20361;-79
2023/12/25 08:41:41;;;;;;;1.27;1.00;;;10.20;99.90;;;;;;5014736;28;20018;-80
2023/12/25 08:44:08;;;;;;;2.53;0.90;;;10.10;99.90;;;;;;5016681;28;20049;-79
2023/12/25 08:46:33;;;;;;;1.00;0.80;;;10.20;99.90;;;;;;5014929;28;20519;-80
2023/12/25 08:48:59;;;;;;;1.10;0.93;;;10.30;99.90;;;;;;5015844;28;20038;-80
2023/12/25 08:51:25;;;;;;;1.10;0.80;;;10.30;99.90;;;;;;5015174;28;20552;-80
2023/12/25 08:53:51;;;;;;;2.77;0.80;;;10.30;99.90;;;;;;5012771;28;20064;-79
2023/12/25 08:56:25;;;;;;;1.60;0.80;;;10.30;99.90;;;;;;5014009;28;20042;-80
2023/12/25 08:58:51;;;;;;;1.50;0.90;;;10.40;99.90;;;;;;5016527;28;20488;-79
2023/12/25 09:01:16;;;;;;;1.93;0.87;;;10.40;99.90;;;;;;5017358;28;20026;-80
2023/12/25 09:03:42;;;;;;;1.20;0.80;;;10.40;99.90;;;;;;5017095;28;20033;-79
2023/12/25 09:06:07;;;;;;;1.13;0.80;;;10.40;99.90;;;;;;5014607;28;20044;-80
2023/12/25 09:08:33;;;;;;;1.20;0.80;;;10.40;99.90;;;;;;5016544;28;20037;-80
2023/12/25 09:10:58;;;;;;;1.10;0.80;;;10.50;99.90;;;;;;5017537;28;20651;-80
2023/12/25 09:13:24;;;;;;;1.40;0.90;;;10.50;99.90;;;;;;5016113;28;21003;-80
2023/12/25 09:15:50;;;;;;;1.13;0.73;;;10.60;99.90;;;;;;5016529;28;20111;-79
2023/12/25 09:18:15;;;;;;;0.80;0.80;;;10.70;99.90;;;;;;5016129;28;20040;-80
2023/12/25 09:20:41;;;;;;;1.17;0.60;;;10.70;99.90;;;;;;5014778;28;20161;-79
2023/12/25 09:23:06;;;;;;;1.23;0.90;;;10.70;99.90;;;;;;5017121;28;20114;-80
2023/12/25 09:25:32;;;;;;;2.03;1.00;;;10.70;99.90;;;;;;5015073;28;20041;-80
2023/12/25 09:27:58;;;;;;;0.90;0.83;;;10.80;99.90;;;;;;5014759;28;20393;-79
2023/12/25 09:30:23;;;;;;;3.33;0.70;;;10.90;99.90;;;;;;5015024;28;20479;-80
2023/12/25 09:32:48;;;;;;;1.30;0.80;;;11.00;99.90;;;;;;5016421;28;20061;-80
2023/12/25 09:35:15;;;;;;;1.47;0.80;;;11.10;99.90;;;;;;5014239;28;20038;-80
2023/12/25 09:37:41;;;;;;;2.37;0.73;;;11.20;99.90;;;;;;5015628;28;20030;-79
2023/12/25 09:40:07;;;;;;;0.70;0.70;;;11.40;99.90;;;;;;5015462;28;20508;-80
2023/12/25 09:42:33;;;;;;;1.20;0.80;;;11.40;99.90;;;;;;5015282;28;20034;-79
2023/12/25 09:44:59;;;;;;;0.87;0.80;;;11.50;99.90;;;;;;5015735;28;20037;-80
2023/12/25 09:47:25;;;;;;;0.90;0.80;;;11.50;99.90;;;;;;5015173;28;20163;-80
2023/12/25 09:49:53;;;;;;;0.70;0.70;;;11.60;99.90;;;;;;5014841;28;20171;-80
2023/12/25 09:52:20;;;;;;;1.53;0.80;;;11.50;99.90;;;;;;5016951;28;20100;-80
2023/12/25 09:54:45;;;;;;;1.30;0.80;;;11.40;99.90;;;;;;5016880;28;20034;-79
2023/12/25 09:57:13;;;;;;;1.17;0.90;;;11.40;99.90;;;;;;5015518;28;20030;-80
2023/12/25 09:59:40;;;;;;;1.00;0.80;;;11.40;99.90;;;;;;5015950;28;20042;-79
2023/12/25 10:02:06;;;;;;;1.40;0.73;;;11.40;99.90;;;;;;5017730;28;20035;-80
2023/12/25 10:04:36;;;;;;;0.80;0.80;;;11.40;99.90;;;;;;4999463;28;20096;-80
2023/12/25 10:07:02;;;;;;;1.40;1.00;;;11.30;99.90;;;;;;5016731;28;20034;-79
2023/12/25 10:09:29;;;;;;;1.00;0.70;;;11.40;99.90;;;;;;5016307;28;20095;-79
2023/12/25 10:11:55;;;;;;;1.43;0.90;;;11.40;99.90;;;;;;5018728;28;20988;-79
2023/12/25 10:14:21;;;;;;;2.63;1.00;;;11.40;99.90;;;;;;5019830;28;20056;-80
2023/12/25 10:16:46;;;;;;;1.47;0.90;;;11.50;99.90;;;;;;5018822;28;20056;-79
2023/12/25 10:19:12;;;;;;;0.93;0.80;;;11.60;99.90;;;;;;5017938;28;20493;-79
2023/12/25 10:21:44;;;;;;;0.80;0.70;;;11.60;99.90;;;;;;5016554;28;20030;-80
2023/12/25 10:24:16;;;;;;;1.10;0.80;;;11.50;99.90;;;;;;5019092;28;20022;-80
2023/12/25 10:26:45;;;;;;;0.90;0.77;;;11.60;99.90;;;;;;5003166;28;21066;-80
2023/12/25 10:29:11;;;;;;;0.97;0.70;;;11.50;99.90;;;;;;5018378;28;20037;-80
2023/12/25 10:31:38;;;;;;;1.17;0.77;;;11.60;99.90;;;;;;4997584;28;20033;-81
2023/12/25 10:34:04;;;;;;;1.10;0.80;;;11.60;99.90;;;;;;5013963;28;20034;-80
2023/12/25 10:36:31;;;;;;;2.63;0.90;;;11.70;99.90;;;;;;5015078;28;20389;-80
2023/12/25 10:38:57;;;;;;;1.07;0.83;;;11.70;99.90;;;;;;5014436;28;20046;-80
2023/12/25 10:41:27;;;;;;;1.83;0.90;;;11.90;99.90;;;;;;5012516;28;20519;-80
2023/12/25 10:43:57;;;;;;;1.03;0.73;;;11.80;99.90;;;;;;5014672;28;20076;-80
2023/12/25 10:46:25;;;;;;;1.20;0.80;;;11.90;99.90;;;;;;5013772;28;20041;-80
2023/12/25 10:48:52;;;;;;;0.90;0.70;;;11.80;99.90;;;;;;5014593;28;20119;-80
2023/12/25 10:51:29;;;;;;;0.90;0.80;;;11.90;99.90;;;;;;5014361;28;20037;-80
2023/12/25 10:53:59;;;;;;;1.50;0.70;;;12.00;99.90;;;;;;5016134;28;20492;-80
2023/12/25 10:56:25;;;;;;;1.20;0.90;;;12.00;99.90;;;;;;5013966;28;20042;-80
2023/12/25 10:58:51;;;;;;;0.97;0.70;;;12.00;99.90;;;;;;5014923;28;20033;-81
2023/12/25 11:01:24;;;;;;;2.67;0.80;;;11.90;99.90;;;;;;5012460;28;20042;-80
2023/12/25 11:03:54;;;;;;;1.63;0.80;;;11.80;99.90;;;;;;5012771;28;20038;-80
2023/12/25 11:06:21;;;;;;;2.60;0.90;;;11.70;99.90;;;;;;5014445;28;20034;-80
2023/12/25 11:08:48;;;;;;;1.13;0.83;;;11.60;99.90;;;;;;5016005;28;20037;-80
2023/12/25 11:11:14;;;;;;;1.57;0.83;;;11.70;99.90;;;;;;5014612;28;20048;-80
2023/12/25 11:13:40;;;;;;;1.33;0.87;;;11.70;99.90;;;;;;5015090;28;20120;-79
2023/12/25 11:16:08;;;;;;;1.67;0.90;;;11.70;99.90;;;;;;5014737;28;20029;-80
2023/12/25 11:18:37;;;;;;;1.20;0.90;;;11.70;99.90;;;;;;5015293;28;20183;-80
2023/12/25 11:21:09;;;;;;;2.10;0.90;;;11.80;99.90;;;;;;5010768;28;20033;-80
2023/12/25 11:23:36;;;;;;;2.27;0.90;;;11.70;99.90;;;;;;5014220;28;20069;-80
2023/12/25 11:26:05;;;;;;;1.70;1.00;;;11.70;99.90;;;;;;5014529;28;20030;-80
2023/12/25 11:28:36;;;;;;;1.50;0.97;;;11.70;99.90;;;;;;5015033;28;20069;-80
2023/12/25 11:31:02;;;;;;;0.90;0.80;;;11.80;99.90;;;;;;5011970;28;20029;-79
2023/12/25 11:33:28;;;;;;;1.03;0.77;;;11.90;99.90;;;;;;5015509;28;20026;-80
2023/12/25 11:35:55;;;;;;;1.50;0.90;;;11.90;99.90;;;;;;5015840;28;20030;-80
2023/12/25 11:38:21;;;;;;;1.00;0.90;;;11.90;99.90;;;;;;5018261;28;20124;-79
2023/12/25 11:40:49;;;;;;;2.23;1.10;;;12.00;99.90;;;;;;5018638;28;20125;-80
2023/12/25 11:43:18;;;;;;;1.13;0.70;;;12.00;99.90;;;;;;5019640;28;20025;-79
2023/12/25 11:45:50;;;;;;;1.20;0.70;;;12.00;99.90;;;;;;4994236;28;20518;-80
2023/12/25 11:48:16;;;;;;;0.90;0.60;;;12.00;99.90;;;;;;5021282;28;20034;-80
2023/12/25 11:50:45;;;;;;;1.07;0.77;;;12.10;99.90;;;;;;5022645;28;20033;-80
2023/12/25 11:53:30;;;;;;;1.27;0.90;;;12.10;99.90;;;;;;5024699;28;20081;-80
2023/12/25 11:55:56;;;;;;;1.90;0.88;;;12.10;99.90;;;;;;5023408;28;20022;-81
2023/12/25 11:58:22;;;;;;;1.10;0.70;;;12.20;99.90;;;;;;5022621;28;20041;-80
2023/12/25 12:00:48;;;;;;;1.33;0.90;;;12.20;99.90;;;;;;5025964;28;20171;-80
2023/12/25 12:03:14;;;;;;;2.10;0.97;;;12.20;99.90;;;;;;5023839;28;20042;-79
2023/12/25 12:05:41;;;;;;;1.37;1.07;;;12.20;99.90;;;;;;5024862;28;20030;-80
2023/12/25 12:08:07;;;;;;;1.07;0.80;;;12.20;99.90;;;;;;5026371;28;20033;-80
2023/12/25 12:10:33;;;;;;;2.03;0.90;;;12.30;99.90;;;;;;5005802;28;20041;-79
2023/12/25 12:12:59;;;;;;;1.30;0.90;;;12.40;99.90;;;;;;5023346;28;20110;-79
2023/12/25 12:15:24;;;;;;;1.20;0.70;;;12.40;99.90;;;;;;5023215;28;20050;-79
2023/12/25 12:17:50;;;;;;;1.67;0.87;;;12.50;99.90;;;;;;5022816;28;20033;-80
2023/12/25 12:20:15;;;;;;;1.30;0.80;;;12.50;99.90;;;;;;5022197;28;20979;-80
2023/12/25 12:22:41;;;;;;;1.23;0.80;;;12.50;99.90;;;;;;5022422;28;20038;-80
2023/12/25 12:25:19;;;;;;;1.00;0.73;;;12.50;99.90;;;;;;5022043;28;20677;-80
2023/12/25 12:27:45;;;;;;;1.10;0.90;;;12.40;99.90;;;;;;5021941;28;20049;-80
2023/12/25 12:30:11;;;;;;;1.20;0.80;;;12.50;99.90;;;;;;5024438;28;20030;-80
2023/12/25 12:32:37;;;;;;;0.93;0.70;;;12.50;99.90;;;;;;5023492;28;20485;-80
2023/12/25 12:35:04;;;;;;;1.23;0.70;;;12.60;99.60;;;;;;5023928;28;20034;-80
2023/12/25 12:37:31;;;;;;;1.55;0.80;;;12.70;99.60;;;;;;5021094;28;20040;-81
2023/12/25 12:40:06;;;;;;;2.13;0.70;;;12.60;99.50;;;;;;5022471;28;20059;-80
2023/12/25 12:42:33;;;;;;;2.60;0.90;;;12.70;99.50;;;;;;5020916;28;20030;-80